createdAt,value
2019-06-20T00:00:05.009Z,0.47
2019-06-20T00:02:31.501Z,0.62
2019-06-20T00:04:57.955Z,0.45
2019-06-20T00:07:26.004Z,0.50
2019-06-20T00:09:52.546Z,0.30
2019-06-20T00:12:19.150Z,0.40
2019-06-20T00:14:45.462Z,0.37
2019-06-20T00:17:11.676Z,0.90
2019-06-20T00:19:37.785Z,0.57
2019-06-20T00:22:04.203Z,0.80
2019-06-20T00:24:30.662Z,0.30
2019-06-20T00:26:56.971Z,0.40
2019-06-20T00:29:23.075Z,0.90
2019-06-20T00:31:49.327Z,0.37
2019-06-20T00:34:15.944Z,0.50
2019-06-20T00:36:42.198Z,0.60
2019-06-20T00:39:08.435Z,0.82
2019-06-20T00:41:35.445Z,0.70
2019-06-20T00:44:04.062Z,0.65
2019-06-20T00:46:30.405Z,0.60
2019-06-20T00:48:56.894Z,0.47
2019-06-20T00:51:23.141Z,0.55
2019-06-20T00:53:49.293Z,0.40
2019-06-20T00:56:16.136Z,0.33
2019-06-20T00:58:42.354Z,0.47
2019-06-20T01:01:08.580Z,0.50
2019-06-20T01:03:34.862Z,0.25
2019-06-20T01:06:01.308Z,0.40
2019-06-20T01:08:28.863Z,0.40
2019-06-20T01:10:55.007Z,0.70
2019-06-20T01:13:33.206Z,0.42
2019-06-20T01:15:49.392Z,0.60
2019-06-20T01:18:15.887Z,0.30
2019-06-20T01:20:42.089Z,0.62
2019-06-20T01:23:08.608Z,0.55
2019-06-20T01:25:42.629Z,0.53
2019-06-20T01:28:09.087Z,0.65
2019-06-20T01:30:35.389Z,0.60
2019-06-20T01:33:01.544Z,0.27
2019-06-20T01:35:28.117Z,0.47
2019-06-20T01:37:54.604Z,0.50
2019-06-20T01:40:21.392Z,0.40
2019-06-20T01:42:47.553Z,0.40
2019-06-20T01:45:14.172Z,0.30
2019-06-20T01:47:40.373Z,0.50
2019-06-20T01:50:07.297Z,0.30
2019-06-20T01:52:33.618Z,0.53
2019-06-20T01:55:00.315Z,0.33
2019-06-20T01:57:26.464Z,0.30
2019-06-20T01:59:52.624Z,0.25
2019-06-20T02:02:19.046Z,0.75
2019-06-20T02:04:45.583Z,0.80
2019-06-20T02:07:13.682Z,0.80
2019-06-20T02:09:40.069Z,0.80
2019-06-20T02:12:06.671Z,1.20
2019-06-20T02:14:33.025Z,0.83
2019-06-20T02:16:59.596Z,0.80
2019-06-20T02:19:25.778Z,0.93
2019-06-20T02:21:52.561Z,0.50
2019-06-20T02:24:18.914Z,0.73
2019-06-20T02:26:46.472Z,0.90
2019-06-20T02:29:12.742Z,0.80
2019-06-20T02:31:40.322Z,0.70
2019-06-20T02:34:06.435Z,0.60
2019-06-20T02:36:32.817Z,0.57
2019-06-20T02:38:59.436Z,0.30
2019-06-20T02:41:25.765Z,0.63
2019-06-20T02:43:52.119Z,0.70
2019-06-20T02:46:18.277Z,0.70
2019-06-20T02:48:44.835Z,0.60
2019-06-20T02:51:11.479Z,0.40
2019-06-20T02:53:37.806Z,0.30
2019-06-20T02:56:04.482Z,0.43
2019-06-20T02:58:30.722Z,0.50
2019-06-20T03:00:57.507Z,0.40
2019-06-20T03:03:25.335Z,0.63
2019-06-20T03:05:53.195Z,0.80
2019-06-20T03:08:19.694Z,0.50
2019-06-20T03:10:45.846Z,0.40
2019-06-20T03:13:12.934Z,1.30
2019-06-20T03:15:39.112Z,1.20
2019-06-20T03:18:05.345Z,1.00
2019-06-20T03:20:31.496Z,0.90
2019-06-20T03:22:57.641Z,0.63
2019-06-20T03:25:24.397Z,0.60
2019-06-20T03:27:50.597Z,0.77
2019-06-20T03:30:17.902Z,0.60
2019-06-20T03:32:44.498Z,0.30
2019-06-20T03:35:11.134Z,0.37
2019-06-20T03:37:37.291Z,0.30
2019-06-20T03:40:05.051Z,0.30
2019-06-20T03:42:31.546Z,0.30
2019-06-20T03:45:02.094Z,0.40
2019-06-20T03:47:26.558Z,0.60
2019-06-20T03:49:52.833Z,1.10
2019-06-20T03:52:19.418Z,1.00
2019-06-20T03:54:45.621Z,1.43
2019-06-20T03:57:12.049Z,1.00
2019-06-20T03:59:38.317Z,1.00
2019-06-20T04:02:05.100Z,1.00
2019-06-20T04:04:31.453Z,1.13
2019-06-20T04:06:57.787Z,1.00
2019-06-20T04:09:24.118Z,1.10
2019-06-20T04:11:50.511Z,0.70
2019-06-20T04:14:17.103Z,0.70
2019-06-20T04:16:43.653Z,0.67
2019-06-20T04:19:10.010Z,0.60
2019-06-20T04:21:36.893Z,0.70
2019-06-20T04:24:03.305Z,0.73
2019-06-20T04:26:29.790Z,0.80
2019-06-20T04:28:56.141Z,0.50
2019-06-20T04:31:23.936Z,0.53
2019-06-20T04:33:50.304Z,0.30
2019-06-20T04:36:16.421Z,0.40
2019-06-20T04:38:42.595Z,0.27
2019-06-20T04:41:09.025Z,0.50
2019-06-20T04:43:35.183Z,0.60
2019-06-20T04:46:12.395Z,0.30
2019-06-20T04:48:38.678Z,0.67
2019-06-20T04:51:04.997Z,0.30
2019-06-20T04:53:33.523Z,0.40
2019-06-20T04:55:59.738Z,0.20
2019-06-20T04:58:25.904Z,0.50
2019-06-20T05:00:52.489Z,0.70
2019-06-20T05:03:18.783Z,0.60
2019-06-20T05:05:45.165Z,0.50
2019-06-20T05:08:11.278Z,0.70
2019-06-20T05:10:37.445Z,0.37
2019-06-20T05:13:04.013Z,0.63
2019-06-20T05:15:30.374Z,0.60
2019-06-20T05:17:56.534Z,0.40
2019-06-20T05:20:22.702Z,0.57
2019-06-20T05:22:49.103Z,0.60
2019-06-20T05:25:15.582Z,0.30
2019-06-20T05:27:41.826Z,0.30
2019-06-20T05:30:10.274Z,0.27
2019-06-20T05:32:36.703Z,0.43
2019-06-20T05:35:04.857Z,0.13
2019-06-20T05:37:31.185Z,0.23
2019-06-20T05:39:57.559Z,0.33
2019-06-20T05:42:23.676Z,0.23
2019-06-20T05:44:49.843Z,0.20
2019-06-20T05:47:16.254Z,0.20
2019-06-20T05:49:42.565Z,0.30
2019-06-20T05:52:08.946Z,0.20
2019-06-20T05:54:35.072Z,0.20
2019-06-20T05:57:03.667Z,0.13
2019-06-20T05:59:30.064Z,0.35
2019-06-20T06:01:56.546Z,0.28
2019-06-20T06:04:23.096Z,0.30
2019-06-20T06:06:49.606Z,0.20
2019-06-20T06:09:15.967Z,0.40
2019-06-20T06:11:42.532Z,0.20
2019-06-20T06:14:08.800Z,0.20
2019-06-20T06:16:34.959Z,0.30
2019-06-20T06:19:01.144Z,0.23
2019-06-20T06:21:27.297Z,0.17
2019-06-20T06:23:53.708Z,0.10
2019-06-20T06:26:19.953Z,0.20
2019-06-20T06:28:46.097Z,0.03
2019-06-20T06:31:12.571Z,0.40
2019-06-20T06:33:39.004Z,0.40
2019-06-20T06:36:05.140Z,0.40
2019-06-20T06:38:31.389Z,0.30
2019-06-20T06:40:57.512Z,0.40
2019-06-20T06:43:23.867Z,0.20
2019-06-20T06:45:50.089Z,0.20
2019-06-20T06:48:16.470Z,0.20
2019-06-20T06:50:42.854Z,0.40
2019-06-20T06:53:09.121Z,0.28
2019-06-20T06:55:35.506Z,0.37
2019-06-20T06:58:01.787Z,0.10
2019-06-20T07:00:28.462Z,0.15
2019-06-20T07:02:54.712Z,0.10
2019-06-20T07:05:21.238Z,0.30
2019-06-20T07:07:47.844Z,0.10
2019-06-20T07:10:15.008Z,0.20
2019-06-20T07:12:41.420Z,0.20
2019-06-20T07:15:08.655Z,0.20
2019-06-20T07:17:35.214Z,0.17
2019-06-20T07:20:02.980Z,0.20
2019-06-20T07:22:29.316Z,0.10
2019-06-20T07:24:55.460Z,0.10
2019-06-20T07:27:21.799Z,0.20
2019-06-20T07:29:47.982Z,0.17
2019-06-20T07:32:15.372Z,0.40
2019-06-20T07:34:41.916Z,0.10
2019-06-20T07:37:09.839Z,0.33
2019-06-20T07:39:36.062Z,0.30
2019-06-20T07:42:02.695Z,0.35
2019-06-20T07:44:29.199Z,0.50
2019-06-20T07:46:55.540Z,0.20
2019-06-20T07:49:21.914Z,0.10
2019-06-20T07:51:48.305Z,0.20
2019-06-20T07:54:14.465Z,0.10
2019-06-20T07:56:40.753Z,0.20
2019-06-20T07:59:07.265Z,0.15
2019-06-20T08:01:33.400Z,0.10
2019-06-20T08:03:59.663Z,0.20
2019-06-20T08:06:25.913Z,0.23
2019-06-20T08:09:10.684Z,0.20
2019-06-20T08:11:37.254Z,0.20
2019-06-20T08:14:23.496Z,0.30
2019-06-20T08:17:02.952Z,0.50
2019-06-20T08:19:29.553Z,0.10
2019-06-20T08:21:56.097Z,0.40
2019-06-20T08:24:29.220Z,0.30
2019-06-20T08:27:15.005Z,0.10
2019-06-20T08:29:43.054Z,0.20
2019-06-20T08:32:09.447Z,0.50
2019-06-20T08:34:36.130Z,0.65
2019-06-20T08:37:06.436Z,0.45
2019-06-20T08:39:32.965Z,0.33
2019-06-20T08:42:00.506Z,0.50
2019-06-20T08:44:28.493Z,0.40
2019-06-20T08:46:56.369Z,0.50
2019-06-20T08:49:22.976Z,0.23
2019-06-20T08:51:49.215Z,0.47
2019-06-20T08:54:15.375Z,0.33
2019-06-20T08:56:43.170Z,0.68
2019-06-20T08:59:23.397Z,0.50
2019-06-20T09:01:38.569Z,0.60
2019-06-20T09:04:05.179Z,0.70
2019-06-20T09:06:31.591Z,0.45
2019-06-20T09:08:58.266Z,0.60
2019-06-20T09:11:24.893Z,0.40
2019-06-20T09:13:53.753Z,0.50
2019-06-20T09:16:24.574Z,0.60
2019-06-20T09:18:47.869Z,0.70
2019-06-20T09:21:14.835Z,0.40
2019-06-20T09:23:41.541Z,0.90
2019-06-20T09:26:08.062Z,0.53
2019-06-20T09:28:34.589Z,0.45
2019-06-20T09:31:01.210Z,0.75
2019-06-20T09:33:27.594Z,0.78
2019-06-20T09:35:55.491Z,1.05
2019-06-20T09:38:23.446Z,0.93
2019-06-20T09:40:51.376Z,0.88
2019-06-20T09:43:27.267Z,0.93
2019-06-20T09:45:47.433Z,0.80
2019-06-20T09:48:14.081Z,0.65
2019-06-20T09:50:40.597Z,0.88
2019-06-20T09:53:07.138Z,0.75
2019-06-20T09:55:33.589Z,0.95
2019-06-20T09:58:00.083Z,0.85
2019-06-20T10:00:27.395Z,1.02
2019-06-20T10:02:55.535Z,0.80
2019-06-20T10:05:22.525Z,0.70
2019-06-20T10:07:50.316Z,0.80
2019-06-20T10:10:17.649Z,0.72
2019-06-20T10:12:45.217Z,1.32
2019-06-20T10:15:23.979Z,0.65
2019-06-20T10:17:50.785Z,0.70
2019-06-20T10:20:17.691Z,0.85
2019-06-20T10:22:45.568Z,0.72
2019-06-20T10:25:12.869Z,0.68
2019-06-20T10:27:39.338Z,0.80
2019-06-20T10:30:14.362Z,1.10
2019-06-20T10:32:34.842Z,1.15
2019-06-20T10:35:01.582Z,1.42
2019-06-20T10:37:27.793Z,2.27
2019-06-20T10:39:54.553Z,1.35
2019-06-20T10:42:25.715Z,1.55
2019-06-20T10:44:52.357Z,0.80
2019-06-20T10:47:31.485Z,1.50
2019-06-20T10:49:47.839Z,1.80
2019-06-20T10:52:15.932Z,1.42
2019-06-20T10:54:43.294Z,0.95
2019-06-20T10:57:09.799Z,0.82
2019-06-20T10:59:36.282Z,0.57
2019-06-20T11:02:02.929Z,0.72
2019-06-20T11:04:29.404Z,0.60
2019-06-20T11:06:56.023Z,0.70
2019-06-20T11:09:22.688Z,0.40
2019-06-20T11:11:49.327Z,0.78
2019-06-20T11:14:15.757Z,0.60
2019-06-20T11:16:43.467Z,0.42
2019-06-20T11:19:10.288Z,1.00
2019-06-20T11:21:38.055Z,0.68
2019-06-20T11:24:05.302Z,0.55
2019-06-20T11:26:31.941Z,0.60
2019-06-20T11:28:59.513Z,0.65
2019-06-20T11:31:27.228Z,0.68
2019-06-20T11:33:56.124Z,0.47
2019-06-20T11:36:22.234Z,0.50
2019-06-20T11:38:49.238Z,0.65
2019-06-20T11:41:15.447Z,0.30
2019-06-20T11:43:42.218Z,0.40
2019-06-20T11:46:09.091Z,0.30
2019-06-20T11:48:36.776Z,0.50
2019-06-20T11:51:03.513Z,0.30
2019-06-20T11:53:29.831Z,0.30
2019-06-20T11:55:56.183Z,0.40
2019-06-20T11:58:23.592Z,0.37
2019-06-20T12:01:03.046Z,0.30
2019-06-20T12:03:18.898Z,0.42
2019-06-20T12:05:45.339Z,0.40
2019-06-20T12:08:11.992Z,0.33
2019-06-20T12:10:39.305Z,0.30
2019-06-20T12:13:06.247Z,0.30
2019-06-20T12:15:33.499Z,0.20
2019-06-20T12:18:00.080Z,0.20
2019-06-20T12:20:27.506Z,0.10
2019-06-20T12:22:55.765Z,0.25
2019-06-20T12:25:22.629Z,0.35
2019-06-20T12:27:49.909Z,0.20
2019-06-20T12:30:17.641Z,0.37
2019-06-20T12:33:06.327Z,0.28
2019-06-20T12:35:32.886Z,0.70
2019-06-20T12:38:00.089Z,0.45
2019-06-20T12:40:26.699Z,0.70
2019-06-20T12:42:53.400Z,0.30
2019-06-20T12:45:20.002Z,0.50
2019-06-20T12:47:46.568Z,0.50
2019-06-20T12:50:13.814Z,0.35
2019-06-20T12:52:41.379Z,0.37
2019-06-20T12:55:10.628Z,0.50
2019-06-20T12:57:38.420Z,0.60
2019-06-20T13:00:06.828Z,0.45
2019-06-20T13:02:34.420Z,0.47
2019-06-20T13:05:00.899Z,0.30
2019-06-20T13:07:27.623Z,0.23
2019-06-20T13:09:54.193Z,0.30
2019-06-20T13:12:21.317Z,0.40
2019-06-20T13:14:47.831Z,0.55
2019-06-20T13:17:14.269Z,0.40
2019-06-20T13:19:41.984Z,0.33
2019-06-20T13:22:08.627Z,0.20
2019-06-20T13:24:35.155Z,0.30
2019-06-20T13:27:01.689Z,0.30
2019-06-20T13:29:28.376Z,0.35
2019-06-20T13:32:03.872Z,0.33
2019-06-20T13:34:23.758Z,0.30
2019-06-20T13:36:50.461Z,0.35
2019-06-20T13:39:17.221Z,0.53
2019-06-20T13:41:48.578Z,0.23
2019-06-20T13:44:20.156Z,0.50
2019-06-20T13:49:41.506Z,0.30
2019-06-20T13:52:09.867Z,0.60
2019-06-20T13:54:39.600Z,0.40
2019-06-20T13:57:07.480Z,0.40
2019-06-20T13:59:34.060Z,0.42
2019-06-20T14:02:06.827Z,0.65
2019-06-20T14:04:28.757Z,0.40
2019-06-20T14:06:55.504Z,0.50
2019-06-20T14:09:22.303Z,0.55
2019-06-20T14:11:48.820Z,0.53
2019-06-20T14:14:16.292Z,0.20
2019-06-20T14:16:44.712Z,0.25
2019-06-20T14:19:11.133Z,0.33
2019-06-20T14:21:38.118Z,0.30
2019-06-20T14:24:04.876Z,0.10
2019-06-20T14:26:31.232Z,0.30
2019-06-20T14:28:58.268Z,0.30
2019-06-20T14:31:24.949Z,0.40
2019-06-20T14:33:52.292Z,0.55
2019-06-20T14:36:21.423Z,0.35
2019-06-20T14:38:47.682Z,0.30
2019-06-20T14:41:14.656Z,0.50
2019-06-20T14:43:42.975Z,0.50
2019-06-20T14:46:10.722Z,0.37
2019-06-20T14:48:37.105Z,0.20
2019-06-20T14:51:03.567Z,0.23
2019-06-20T14:53:30.110Z,0.30
2019-06-20T14:55:56.634Z,0.20
2019-06-20T14:58:24.246Z,0.20
2019-06-20T15:00:52.171Z,0.23
2019-06-20T15:03:18.826Z,0.40
2019-06-20T15:05:46.596Z,0.33
2019-06-20T15:08:15.101Z,0.40
2019-06-20T15:10:41.363Z,0.42
2019-06-20T15:13:07.621Z,0.47
2019-06-20T15:15:34.232Z,0.50
2019-06-20T15:18:00.894Z,0.40
2019-06-20T15:20:27.162Z,0.40
2019-06-20T15:22:54.655Z,0.53
2019-06-20T15:25:21.657Z,0.42
2019-06-20T15:27:49.711Z,0.40
2019-06-20T15:30:16.600Z,0.50
2019-06-20T15:32:55.240Z,0.40
2019-06-20T15:35:31.216Z,0.30
2019-06-20T15:37:57.971Z,0.30
2019-06-20T15:40:24.373Z,0.20
2019-06-20T15:42:51.640Z,0.20
2019-06-20T15:45:19.567Z,0.23
2019-06-20T15:47:46.156Z,0.30
2019-06-20T15:50:14.258Z,0.30
2019-06-20T15:52:40.689Z,0.20
2019-06-20T15:55:08.058Z,0.30
2019-06-20T15:57:34.514Z,0.30
2019-06-20T16:00:01.384Z,0.30
2019-06-20T16:02:27.871Z,0.20
2019-06-20T16:04:54.037Z,0.40
2019-06-20T16:07:20.485Z,0.20
2019-06-20T16:09:46.980Z,0.30
2019-06-20T16:12:13.720Z,0.42
2019-06-20T16:14:40.538Z,0.30
2019-06-20T16:17:07.070Z,0.28
2019-06-20T16:19:33.376Z,0.20
2019-06-20T16:21:59.981Z,0.40
2019-06-20T16:24:26.605Z,0.30
2019-06-20T16:26:53.215Z,0.60
2019-06-20T16:29:20.266Z,0.28
2019-06-20T16:31:46.998Z,0.33
2019-06-20T16:34:13.619Z,0.50
2019-06-20T16:36:40.228Z,0.65
2019-06-20T16:39:07.889Z,0.50
2019-06-20T16:41:34.600Z,0.50
2019-06-20T16:44:01.725Z,0.60
2019-06-20T16:46:48.231Z,0.47
2019-06-20T16:49:14.735Z,0.30
2019-06-20T16:51:42.150Z,0.50
2019-06-20T16:54:10.219Z,0.30
2019-06-20T16:56:38.224Z,0.20
2019-06-20T16:59:06.093Z,0.30
2019-06-20T17:01:34.403Z,0.40
2019-06-20T17:04:02.353Z,0.40
2019-06-20T17:06:30.413Z,0.35
2019-06-20T17:08:59.544Z,0.50
2019-06-20T17:11:27.711Z,0.45
2019-06-20T17:13:56.333Z,0.60
2019-06-20T17:16:24.648Z,0.57
2019-06-20T17:18:53.134Z,0.33
2019-06-20T17:21:21.287Z,0.30
2019-06-20T17:23:49.834Z,0.20
2019-06-20T17:26:18.276Z,0.20
2019-06-20T17:28:46.635Z,0.10
2019-06-20T17:31:15.046Z,0.20
2019-06-20T17:33:56.824Z,0.17
2019-06-20T17:36:18.199Z,0.20
2019-06-20T17:38:42.760Z,0.30
2019-06-20T17:41:10.033Z,0.20
2019-06-20T17:43:38.276Z,0.30
2019-06-20T17:46:06.109Z,0.40
2019-06-20T17:48:34.045Z,0.10
2019-06-20T17:51:02.556Z,0.30
2019-06-20T17:53:30.967Z,0.30
2019-06-20T17:55:59.275Z,0.20
2019-06-20T17:58:27.011Z,0.17
2019-06-20T18:00:56.407Z,0.28
2019-06-20T18:03:22.713Z,0.37
2019-06-20T18:05:51.229Z,0.20
2019-06-20T18:08:17.567Z,0.17
2019-06-20T18:10:43.751Z,0.30
2019-06-20T18:13:10.254Z,0.20
2019-06-20T18:15:36.986Z,0.30
2019-06-20T18:18:03.786Z,0.20
2019-06-20T18:20:30.234Z,0.20
2019-06-20T18:22:56.467Z,0.25
2019-06-20T18:25:23.417Z,0.25
2019-06-20T18:27:50.141Z,0.30
2019-06-20T18:30:19.818Z,0.42
2019-06-20T18:32:45.972Z,0.50
2019-06-20T18:35:13.168Z,0.40
2019-06-20T18:37:44.377Z,0.60
2019-06-20T18:40:11.432Z,0.40
2019-06-20T18:42:38.516Z,0.98
2019-06-20T18:45:06.016Z,1.10
2019-06-20T18:47:35.011Z,1.07
2019-06-20T18:50:02.329Z,0.53
2019-06-20T18:52:30.435Z,0.60
2019-06-20T18:54:58.423Z,0.35
2019-06-20T18:57:26.246Z,0.47
2019-06-20T18:59:54.442Z,0.33
2019-06-20T19:02:22.631Z,0.30
2019-06-20T19:04:51.029Z,0.20
2019-06-20T19:07:18.555Z,0.20
2019-06-20T19:10:08.640Z,0.40
2019-06-20T19:12:36.711Z,0.35
2019-06-20T19:15:09.119Z,0.25
2019-06-20T19:17:37.656Z,0.30
2019-06-20T19:20:05.829Z,0.35
2019-06-20T19:22:34.122Z,0.30
2019-06-20T19:25:04.086Z,0.20
2019-06-20T19:27:45.452Z,0.10
2019-06-20T19:30:00.594Z,0.10
2019-06-20T19:32:27.206Z,0.20
2019-06-20T19:35:02.245Z,0.30
2019-06-20T19:37:22.593Z,0.20
2019-06-20T19:39:48.918Z,0.85
2019-06-20T19:42:15.397Z,0.55
2019-06-20T19:44:42.888Z,0.40
2019-06-20T19:47:10.860Z,0.68
2019-06-20T19:49:37.206Z,0.40
2019-06-20T19:52:03.924Z,0.45
2019-06-20T19:54:32.069Z,0.37
2019-06-20T19:57:00.408Z,0.40
2019-06-20T19:59:28.329Z,0.28
2019-06-20T20:01:55.890Z,0.30
2019-06-20T20:04:22.486Z,0.37
2019-06-20T20:06:50.999Z,0.35
2019-06-20T20:09:18.489Z,0.20
2019-06-20T20:11:45.021Z,0.30
2019-06-20T20:14:11.525Z,0.10
2019-06-20T20:16:38.056Z,0.20
2019-06-20T20:19:04.882Z,0.37
2019-06-20T20:21:31.513Z,0.28
2019-06-20T20:23:58.291Z,0.13
2019-06-20T20:26:25.190Z,0.33
2019-06-20T20:28:51.591Z,0.30
2019-06-20T20:31:18.873Z,0.20
2019-06-20T20:33:45.458Z,0.30
2019-06-20T20:36:24.415Z,0.40
2019-06-20T20:38:40.466Z,0.23
2019-06-20T20:41:07.025Z,0.20
2019-06-20T20:43:33.546Z,0.17
2019-06-20T20:45:59.744Z,0.20
2019-06-20T20:48:26.315Z,0.30
2019-06-20T20:50:52.646Z,0.10
2019-06-20T20:53:19.580Z,0.10
2019-06-20T20:55:45.964Z,0.57
2019-06-20T20:58:14.107Z,0.20
2019-06-20T21:01:07.638Z,0.27
2019-06-20T21:03:34.542Z,0.35
2019-06-20T21:06:00.827Z,0.30
2019-06-20T21:08:27.534Z,0.20
2019-06-20T21:10:54.175Z,0.20
2019-06-20T21:13:20.751Z,0.30
2019-06-20T21:15:47.241Z,0.20
2019-06-20T21:18:13.963Z,0.20
2019-06-20T21:20:43.359Z,0.10
2019-06-20T21:23:10.073Z,0.33
2019-06-20T21:25:36.518Z,0.20
2019-06-20T21:28:03.289Z,0.20
2019-06-20T21:30:30.658Z,0.27
2019-06-20T21:32:57.401Z,0.15
2019-06-20T21:35:24.172Z,0.25
2019-06-20T21:37:50.668Z,0.20
2019-06-20T21:40:17.253Z,0.40
2019-06-20T21:42:43.573Z,0.17
2019-06-20T21:45:10.406Z,0.10
2019-06-20T21:47:37.098Z,0.37
2019-06-20T21:50:08.388Z,0.20
2019-06-20T21:52:34.913Z,0.20
2019-06-20T21:55:01.143Z,0.33
2019-06-20T21:57:28.403Z,0.10
2019-06-20T21:59:55.073Z,0.30
2019-06-20T22:02:21.663Z,0.30
2019-06-20T22:04:54.470Z,0.20
2019-06-20T22:07:16.751Z,0.20
2019-06-20T22:09:43.363Z,0.23
2019-06-20T22:12:12.729Z,0.40
2019-06-20T22:14:39.909Z,0.10
2019-06-20T22:17:06.463Z,0.30
2019-06-20T22:19:32.784Z,0.20
2019-06-20T22:21:59.276Z,0.17
2019-06-20T22:24:26.040Z,0.30
2019-06-20T22:26:52.432Z,0.20
2019-06-20T22:29:19.513Z,0.30
2019-06-20T22:31:47.080Z,0.10
2019-06-20T22:34:14.047Z,0.10
2019-06-20T22:36:40.836Z,0.20
2019-06-20T22:39:08.542Z,0.10
2019-06-20T22:41:34.798Z,0.23
2019-06-20T22:44:01.467Z,0.40
2019-06-20T22:46:28.163Z,0.70
2019-06-20T22:48:54.322Z,0.20
2019-06-20T22:51:20.822Z,0.35
2019-06-20T22:53:47.287Z,0.30
2019-06-20T22:56:13.543Z,0.30
2019-06-20T22:58:40.019Z,0.20
2019-06-20T23:01:06.387Z,0.10
2019-06-20T23:03:33.031Z,0.33
2019-06-20T23:05:59.692Z,0.00
2019-06-20T23:08:26.253Z,0.30
2019-06-20T23:10:52.453Z,0.30
2019-06-20T23:13:38.773Z,0.20
2019-06-20T23:16:05.400Z,0.30
2019-06-20T23:18:32.312Z,0.50
2019-06-20T23:21:04.473Z,0.30
2019-06-20T23:23:27.016Z,0.27
2019-06-20T23:25:55.424Z,0.10
2019-06-20T23:28:21.553Z,0.17
2019-06-20T23:30:48.296Z,0.30
2019-06-20T23:33:14.685Z,0.30
2019-06-20T23:35:41.285Z,0.20
2019-06-20T23:38:08.042Z,0.37
2019-06-20T23:40:34.535Z,0.42
2019-06-20T23:43:00.864Z,0.40
2019-06-20T23:45:27.126Z,0.40
2019-06-20T23:47:53.245Z,0.30
2019-06-20T23:50:19.883Z,0.70
2019-06-20T23:52:49.613Z,0.43
2019-06-20T23:55:16.165Z,0.40
2019-06-20T23:57:42.487Z,0.30
